createdAt,value
2022-12-05T00:01:23.642Z,93.70
2022-12-05T00:03:53.833Z,94.10
2022-12-05T00:06:21.953Z,94.60
2022-12-05T00:08:49.324Z,93.60
2022-12-05T00:11:22.032Z,93.40
2022-12-05T00:13:50.179Z,94.60
2022-12-05T00:16:20.434Z,95.10
2022-12-05T00:18:48.190Z,94.40
2022-12-05T00:21:19.903Z,95.20
2022-12-05T00:23:47.509Z,94.50
2022-12-05T00:26:14.859Z,93.20
2022-12-05T00:28:42.211Z,94.10
2022-12-05T00:31:13.789Z,95.40
2022-12-05T00:33:41.093Z,96.10
2022-12-05T00:36:11.010Z,96.80
2022-12-05T00:38:38.571Z,96.30
2022-12-05T00:41:08.065Z,96.80
2022-12-05T00:43:35.769Z,96.50
2022-12-05T00:46:19.469Z,98.20
2022-12-05T00:48:47.334Z,97.80
2022-12-05T00:51:24.248Z,97.30
2022-12-05T00:53:51.493Z,99.10
2022-12-05T00:56:23.572Z,98.30
2022-12-05T00:58:52.595Z,98.00
2022-12-05T01:01:35.720Z,97.30
2022-12-05T01:04:06.911Z,97.60
2022-12-05T01:06:34.439Z,98.60
2022-12-05T01:09:02.459Z,97.40
2022-12-05T01:11:30.381Z,99.90
2022-12-05T01:13:58.245Z,98.80
2022-12-05T01:16:34.840Z,97.20
2022-12-05T01:19:06.534Z,98.70
2022-12-05T01:21:33.823Z,99.90
2022-12-05T01:24:01.065Z,99.90
2022-12-05T01:26:28.582Z,99.90
2022-12-05T01:28:56.178Z,99.90
2022-12-05T01:31:29.982Z,99.90
2022-12-05T01:33:59.311Z,99.90
2022-12-05T01:36:27.809Z,99.90
2022-12-05T01:38:55.979Z,99.90
2022-12-05T01:41:29.673Z,99.90
2022-12-05T01:44:06.269Z,99.90
2022-12-05T01:46:38.837Z,99.90
2022-12-05T01:49:31.386Z,99.90
2022-12-05T01:52:09.089Z,99.90
2022-12-05T01:54:38.160Z,99.90
2022-12-05T01:57:08.839Z,99.90
2022-12-05T01:59:41.767Z,99.90
2022-12-05T02:02:09.675Z,99.90
2022-12-05T02:04:42.904Z,99.90
2022-12-05T02:07:10.179Z,99.90
2022-12-05T02:09:37.470Z,99.90
2022-12-05T02:12:05.052Z,98.70
2022-12-05T02:14:51.686Z,99.90
2022-12-05T02:17:25.165Z,99.90
2022-12-05T02:20:07.016Z,99.90
2022-12-05T02:22:49.004Z,99.90
2022-12-05T02:25:55.464Z,99.90
2022-12-05T02:28:34.933Z,99.90
2022-12-05T02:31:17.168Z,99.90
2022-12-05T02:34:15.875Z,99.90
2022-12-05T02:37:02.187Z,99.90
2022-12-05T02:39:44.701Z,99.90
2022-12-05T02:42:29.960Z,99.90
2022-12-05T02:45:02.061Z,99.90
2022-12-05T02:47:33.175Z,99.90
2022-12-05T02:50:01.330Z,99.90
2022-12-05T02:52:32.711Z,99.90
2022-12-05T02:55:00.851Z,99.90
2022-12-05T02:57:28.740Z,99.90
2022-12-05T02:59:56.246Z,99.90
2022-12-05T03:02:27.855Z,99.90
2022-12-05T03:05:16.851Z,99.90
2022-12-05T03:07:47.027Z,99.90
2022-12-05T03:10:17.006Z,99.90
2022-12-05T03:12:52.023Z,99.90
2022-12-05T03:15:43.089Z,99.90
2022-12-05T03:18:21.381Z,99.90
2022-12-05T03:20:53.985Z,99.90
2022-12-05T03:23:30.659Z,99.90
2022-12-05T03:26:31.977Z,99.90
2022-12-05T03:29:31.525Z,97.80
2022-12-05T03:31:58.815Z,93.60
2022-12-05T03:34:46.271Z,92.50
2022-12-05T03:37:31.382Z,92.10
2022-12-05T03:40:07.871Z,95.10
2022-12-05T03:42:40.418Z,92.00
2022-12-05T03:45:11.907Z,92.50
2022-12-05T03:47:53.007Z,94.30
2022-12-05T03:50:27.408Z,93.10
2022-12-05T03:53:19.676Z,94.50
2022-12-05T03:55:55.200Z,94.90
2022-12-05T03:58:31.288Z,95.50
2022-12-05T04:01:01.576Z,94.90
2022-12-05T04:03:44.777Z,94.40
2022-12-05T04:06:29.183Z,94.00
2022-12-05T04:09:05.842Z,94.00
2022-12-05T04:11:36.560Z,93.10
2022-12-05T04:14:47.508Z,92.70
2022-12-05T04:17:34.504Z,91.20
2022-12-05T04:20:25.943Z,93.20
2022-12-05T04:22:53.331Z,90.40
2022-12-05T04:25:35.532Z,80.20
2022-12-05T04:28:05.686Z,75.80
2022-12-05T04:30:48.592Z,76.20
2022-12-05T04:33:25.375Z,77.70
2022-12-05T04:36:07.688Z,79.40
2022-12-05T04:38:51.282Z,82.00
2022-12-05T04:41:28.467Z,86.50
2022-12-05T04:44:02.156Z,90.50
2022-12-05T04:46:29.381Z,89.40
2022-12-05T04:49:01.051Z,91.10
2022-12-05T04:51:34.294Z,90.50
2022-12-05T04:54:11.399Z,87.10
2022-12-05T04:56:39.926Z,90.00
2022-12-05T04:59:07.161Z,89.90
2022-12-05T05:01:46.003Z,90.10
2022-12-05T05:04:42.616Z,91.60
2022-12-05T05:07:12.406Z,91.50
2022-12-05T05:09:40.386Z,90.30
2022-12-05T05:12:07.899Z,87.40
2022-12-05T05:14:35.185Z,83.00
2022-12-05T05:17:02.873Z,82.60
2022-12-05T05:19:30.394Z,84.40
2022-12-05T05:21:57.700Z,85.80
2022-12-05T05:24:26.375Z,85.90
2022-12-05T05:26:57.302Z,85.00
2022-12-05T05:29:25.309Z,90.00
2022-12-05T05:31:52.494Z,91.20
2022-12-05T05:34:19.799Z,92.50
2022-12-05T05:36:52.179Z,90.10
2022-12-05T05:39:19.459Z,89.50
2022-12-05T05:41:46.664Z,87.60
2022-12-05T05:44:13.917Z,83.00
2022-12-05T05:46:41.203Z,79.50
2022-12-05T05:49:08.479Z,82.80
2022-12-05T05:51:35.925Z,83.10
2022-12-05T05:54:03.210Z,85.80
2022-12-05T05:56:30.535Z,89.90
2022-12-05T05:59:00.518Z,90.00
2022-12-05T06:01:28.731Z,84.50
2022-12-05T06:03:56.173Z,82.80
2022-12-05T06:06:23.976Z,82.70
2022-12-05T06:08:51.252Z,79.70
2022-12-05T06:11:26.139Z,80.80
2022-12-05T06:13:58.350Z,83.20
2022-12-05T06:16:25.906Z,89.90
2022-12-05T06:18:53.620Z,91.90
2022-12-05T06:21:21.790Z,91.90
2022-12-05T06:23:49.960Z,99.90
2022-12-05T06:26:19.715Z,94.50
2022-12-05T06:28:47.533Z,95.70
2022-12-05T06:31:17.679Z,95.70
2022-12-05T06:33:45.412Z,95.00
2022-12-05T06:36:15.167Z,96.00
2022-12-05T06:38:42.760Z,97.90
2022-12-05T06:41:15.978Z,98.50
2022-12-05T06:43:43.367Z,99.20
2022-12-05T06:46:12.230Z,99.90
2022-12-05T06:48:39.571Z,99.90
2022-12-05T06:51:11.295Z,99.90
2022-12-05T06:53:39.171Z,99.90
2022-12-05T06:56:12.770Z,99.90
2022-12-05T06:58:41.132Z,99.90
2022-12-05T07:01:38.824Z,99.90
2022-12-05T07:04:08.443Z,99.90
2022-12-05T07:06:36.124Z,99.90
2022-12-05T07:09:04.591Z,99.90
2022-12-05T07:11:32.442Z,99.90
2022-12-05T07:13:59.673Z,99.90
2022-12-05T07:16:26.979Z,99.90
2022-12-05T07:18:54.326Z,99.90
2022-12-05T07:21:22.291Z,99.90
2022-12-05T07:23:50.426Z,99.90
2022-12-05T07:26:21.342Z,99.90
2022-12-05T07:28:49.420Z,99.90
2022-12-05T07:31:22.782Z,99.90
2022-12-05T07:33:50.536Z,99.90
2022-12-05T07:36:20.773Z,99.90
2022-12-05T07:38:48.016Z,99.90
2022-12-05T07:41:21.262Z,99.90
2022-12-05T07:43:48.535Z,99.90
2022-12-05T07:46:16.293Z,99.90
2022-12-05T07:48:43.599Z,99.90
2022-12-05T07:51:11.347Z,99.90
2022-12-05T07:53:41.583Z,99.90
2022-12-05T07:56:09.419Z,99.90
2022-12-05T07:58:37.204Z,99.90
2022-12-05T08:01:15.315Z,99.90
2022-12-05T08:03:43.491Z,99.90
2022-12-05T08:06:14.581Z,99.90
2022-12-05T08:08:41.870Z,99.90
2022-12-05T08:11:15.062Z,99.90
2022-12-05T08:13:44.790Z,99.90
2022-12-05T08:16:14.840Z,98.60
2022-12-05T08:18:42.873Z,99.80
2022-12-05T08:21:13.044Z,99.80
2022-12-05T08:23:41.157Z,99.90
2022-12-05T08:26:11.687Z,99.90
2022-12-05T08:28:39.579Z,99.90
2022-12-05T08:31:07.030Z,97.70
2022-12-05T08:33:34.928Z,97.40
2022-12-05T08:36:03.438Z,99.90
2022-12-05T08:38:31.077Z,99.90
2022-12-05T08:41:02.174Z,99.90
2022-12-05T08:43:30.796Z,98.70
2022-12-05T08:45:58.385Z,99.90
2022-12-05T08:48:29.486Z,98.60
2022-12-05T08:50:57.416Z,96.80
2022-12-05T08:53:25.449Z,96.20
2022-12-05T08:55:52.683Z,91.50
2022-12-05T08:58:19.867Z,91.80
2022-12-05T09:00:47.088Z,91.10
2022-12-05T09:03:14.253Z,92.40
2022-12-05T09:05:41.819Z,93.30
2022-12-05T09:08:09.153Z,95.10
2022-12-05T09:10:38.726Z,92.90
2022-12-05T09:13:05.886Z,92.70
2022-12-05T09:15:33.121Z,91.50
2022-12-05T09:18:00.322Z,89.90
2022-12-05T09:20:27.920Z,83.40
2022-12-05T09:22:55.216Z,65.10
2022-12-05T09:25:22.436Z,60.50
2022-12-05T09:27:49.667Z,64.60
2022-12-05T09:30:16.946Z,64.50
2022-12-05T09:32:44.176Z,68.40
2022-12-05T09:35:11.410Z,63.50
2022-12-05T09:37:40.043Z,59.00
2022-12-05T09:40:15.417Z,57.20
2022-12-05T09:43:05.285Z,61.00
2022-12-05T09:45:39.611Z,62.70
2022-12-05T09:48:20.083Z,58.80
2022-12-05T09:50:53.061Z,60.60
2022-12-05T09:53:34.072Z,63.50
2022-12-05T09:56:11.568Z,63.60
2022-12-05T09:59:00.938Z,62.00
2022-12-05T10:01:31.211Z,64.80
2022-12-05T10:04:17.697Z,65.70
2022-12-05T10:07:15.672Z,70.60
2022-12-05T10:09:45.844Z,74.00
2022-12-05T10:12:18.943Z,70.30
2022-12-05T10:14:58.268Z,72.70
2022-12-05T10:17:35.350Z,77.30
2022-12-05T10:20:16.474Z,79.00
2022-12-05T10:23:06.896Z,71.20
2022-12-05T10:25:37.414Z,70.80
2022-12-05T10:28:14.717Z,66.80
2022-12-05T10:30:43.062Z,65.00
2022-12-05T10:33:22.358Z,63.30
2022-12-05T10:35:53.853Z,87.00
2022-12-05T10:38:29.472Z,62.60
2022-12-05T10:41:04.020Z,60.10
2022-12-05T10:43:33.879Z,64.70
2022-12-05T10:46:02.877Z,65.30
2022-12-05T10:48:31.667Z,58.60
2022-12-05T10:51:00.237Z,59.10
2022-12-05T10:53:29.248Z,65.70
2022-12-05T10:56:28.627Z,67.60
2022-12-05T10:58:56.572Z,61.90
2022-12-05T11:01:27.195Z,58.80
2022-12-05T11:03:59.870Z,60.20
2022-12-05T11:06:29.100Z,58.60
2022-12-05T11:09:18.559Z,60.50
2022-12-05T11:12:20.827Z,58.20
2022-12-05T11:15:04.671Z,81.40
2022-12-05T11:17:37.576Z,60.40
2022-12-05T11:20:25.072Z,62.30
2022-12-05T11:22:54.213Z,58.80
2022-12-05T11:25:25.848Z,59.20
2022-12-05T11:27:55.966Z,61.30
2022-12-05T11:30:29.243Z,61.70
2022-12-05T11:33:35.875Z,59.10
2022-12-05T11:36:23.473Z,59.90
2022-12-05T11:38:51.749Z,66.80
2022-12-05T11:41:56.055Z,63.40
2022-12-05T11:44:42.394Z,67.40
2022-12-05T11:47:21.848Z,66.10
2022-12-05T11:49:57.660Z,60.20
2022-12-05T11:53:18.201Z,63.00
2022-12-05T11:55:52.171Z,55.60
2022-12-05T11:58:28.683Z,56.40
2022-12-05T12:01:02.015Z,57.80
2022-12-05T12:03:47.962Z,60.00
2022-12-05T12:06:38.971Z,59.70
2022-12-05T12:09:43.497Z,56.40
2022-12-05T12:12:13.547Z,55.20
2022-12-05T12:14:43.674Z,53.10
2022-12-05T12:17:29.569Z,54.60
2022-12-05T12:20:21.967Z,58.20
2022-12-05T12:23:23.692Z,56.30
2022-12-05T12:26:08.301Z,55.60
2022-12-05T12:28:46.242Z,57.30
2022-12-05T12:31:38.743Z,55.00
2022-12-05T12:34:24.750Z,58.20
2022-12-05T12:37:16.411Z,57.80
2022-12-05T12:39:46.315Z,59.20
2022-12-05T12:42:25.430Z,56.10
2022-12-05T12:45:11.340Z,59.90
2022-12-05T12:47:59.984Z,57.50
2022-12-05T12:50:38.860Z,57.10
2022-12-05T12:53:23.871Z,55.20
2022-12-05T12:56:12.406Z,57.50
2022-12-05T12:58:55.955Z,52.60
2022-12-05T13:01:55.740Z,51.20
2022-12-05T13:04:44.940Z,56.10
2022-12-05T13:07:25.529Z,54.60
2022-12-05T13:09:57.918Z,55.00
2022-12-05T13:12:32.491Z,54.60
2022-12-05T13:15:04.528Z,53.50
2022-12-05T13:17:33.002Z,55.70
2022-12-05T13:20:00.991Z,54.80
2022-12-05T13:22:29.329Z,55.80
2022-12-05T13:24:57.236Z,56.90
2022-12-05T13:27:27.667Z,56.20
2022-12-05T13:30:02.649Z,57.10
2022-12-05T13:32:55.958Z,58.20
2022-12-05T13:35:57.209Z,58.10
2022-12-05T13:38:49.132Z,58.00
2022-12-05T13:41:35.564Z,60.90
2022-12-05T13:44:12.551Z,60.00
2022-12-05T13:46:42.918Z,60.80
2022-12-05T13:49:31.202Z,59.40
2022-12-05T13:52:11.919Z,65.20
2022-12-05T13:54:45.470Z,62.70
2022-12-05T13:57:40.324Z,64.80
2022-12-05T14:00:10.515Z,67.30
2022-12-05T14:02:45.406Z,81.00
2022-12-05T14:05:17.397Z,68.20
2022-12-05T14:07:48.801Z,69.40
2022-12-05T14:10:17.372Z,75.40
2022-12-05T14:13:23.800Z,78.20
2022-12-05T14:15:55.441Z,77.50
2022-12-05T14:18:44.682Z,76.90
2022-12-05T14:21:24.845Z,84.30
2022-12-05T14:24:28.262Z,82.10
2022-12-05T14:27:17.951Z,84.20
2022-12-05T14:30:17.298Z,88.70
2022-12-05T14:32:44.801Z,88.90
2022-12-05T14:35:14.815Z,87.20
2022-12-05T14:38:01.334Z,89.00
2022-12-05T14:40:33.568Z,89.80
2022-12-05T14:43:06.024Z,90.00
2022-12-05T14:45:48.080Z,91.00
2022-12-05T14:48:15.492Z,90.30
2022-12-05T14:50:51.905Z,92.50
2022-12-05T14:53:22.451Z,99.90
2022-12-05T14:56:01.371Z,95.50
2022-12-05T14:58:34.448Z,94.60
2022-12-05T15:01:09.327Z,93.40
2022-12-05T15:03:40.891Z,93.10
2022-12-05T15:06:15.923Z,96.20
2022-12-05T15:08:50.222Z,97.30
2022-12-05T15:11:28.988Z,97.30
2022-12-05T15:14:18.700Z,97.10
2022-12-05T15:16:50.274Z,98.20
2022-12-05T15:19:32.707Z,97.30
2022-12-05T15:22:02.755Z,96.60
2022-12-05T15:24:38.646Z,97.70
2022-12-05T15:27:11.616Z,98.40
2022-12-05T15:29:41.215Z,96.60
2022-12-05T15:32:11.241Z,98.80
2022-12-05T15:35:05.218Z,98.20
2022-12-05T15:37:42.507Z,97.00
2022-12-05T15:40:14.852Z,97.50
2022-12-05T15:42:49.228Z,98.50
2022-12-05T15:45:23.380Z,98.60
2022-12-05T15:47:52.405Z,98.10
2022-12-05T15:50:43.870Z,97.50
2022-12-05T15:53:22.998Z,99.90
2022-12-05T15:56:04.883Z,99.90
2022-12-05T15:58:40.474Z,99.90
2022-12-05T16:01:20.338Z,99.90
2022-12-05T16:03:50.607Z,99.80
2022-12-05T16:06:23.964Z,99.90
2022-12-05T16:08:51.931Z,99.90
2022-12-05T16:11:20.020Z,99.90
2022-12-05T16:13:54.659Z,99.90
2022-12-05T16:16:25.774Z,98.90
2022-12-05T16:18:55.520Z,99.90
2022-12-05T16:21:41.405Z,99.90
2022-12-05T16:24:20.688Z,99.90
2022-12-05T16:27:07.186Z,99.90
2022-12-05T16:29:35.937Z,99.30
2022-12-05T16:32:07.068Z,99.90
2022-12-05T16:34:35.086Z,99.90
2022-12-05T16:37:02.899Z,99.90
2022-12-05T16:39:30.391Z,99.90
2022-12-05T16:41:57.675Z,99.80
2022-12-05T16:44:28.215Z,99.90
2022-12-05T16:46:56.765Z,99.90
2022-12-05T16:49:42.640Z,99.90
2022-12-05T16:52:14.757Z,99.90
2022-12-05T16:54:43.172Z,99.90
2022-12-05T16:57:14.192Z,99.90
2022-12-05T16:59:43.645Z,99.90
2022-12-05T17:02:14.822Z,99.90
2022-12-05T17:04:42.267Z,99.90
2022-12-05T17:07:09.902Z,99.90
2022-12-05T17:09:37.099Z,99.90
2022-12-05T17:12:20.831Z,99.90
2022-12-05T17:14:48.143Z,99.90
2022-12-05T17:17:16.175Z,99.90
2022-12-05T17:19:43.428Z,99.90
2022-12-05T17:22:12.777Z,99.90
2022-12-05T17:24:40.082Z,99.90
2022-12-05T17:27:11.655Z,99.90
2022-12-05T17:29:38.854Z,99.90
2022-12-05T17:32:06.236Z,99.90
2022-12-05T17:34:33.654Z,99.90
2022-12-05T17:37:00.919Z,99.90
2022-12-05T17:39:28.961Z,99.90
2022-12-05T17:41:56.437Z,99.90
2022-12-05T17:44:24.144Z,99.90
2022-12-05T17:46:51.720Z,99.90
2022-12-05T17:49:20.084Z,99.90
2022-12-05T17:52:20.027Z,99.90
2022-12-05T17:54:35.716Z,99.90
2022-12-05T17:57:03.103Z,99.90
2022-12-05T17:59:30.374Z,99.90
2022-12-05T18:01:57.716Z,99.90
2022-12-05T18:04:24.909Z,99.90
2022-12-05T18:06:52.387Z,99.90
2022-12-05T18:09:19.740Z,99.90
2022-12-05T18:11:46.897Z,99.90
2022-12-05T18:14:14.117Z,99.90
2022-12-05T18:16:41.341Z,99.90
2022-12-05T18:19:09.303Z,99.90
2022-12-05T18:21:36.648Z,99.90
2022-12-05T18:24:04.047Z,99.90
2022-12-05T18:26:31.512Z,99.90
2022-12-05T18:28:59.427Z,99.90
2022-12-05T18:31:26.830Z,99.90
2022-12-05T18:33:54.201Z,99.90
2022-12-05T18:36:22.151Z,99.90
2022-12-05T18:38:55.059Z,99.90
2022-12-05T18:41:24.268Z,99.90
2022-12-05T18:43:52.217Z,99.90
2022-12-05T18:46:19.496Z,99.90
2022-12-05T18:48:47.992Z,99.90
2022-12-05T18:51:18.139Z,99.90
2022-12-05T18:53:52.412Z,99.90
2022-12-05T18:56:24.544Z,99.90
2022-12-05T18:58:54.861Z,99.90
2022-12-05T19:01:22.337Z,99.90
2022-12-05T19:03:50.585Z,99.90
2022-12-05T19:06:20.697Z,99.90
2022-12-05T19:08:48.442Z,99.90
2022-12-05T19:11:18.318Z,99.90
2022-12-05T19:13:47.701Z,99.90
2022-12-05T19:16:17.377Z,99.90
2022-12-05T19:18:46.836Z,99.90
2022-12-05T19:21:14.428Z,99.90
2022-12-05T19:23:42.192Z,99.90
2022-12-05T19:26:13.152Z,99.90
2022-12-05T19:28:40.796Z,99.90
2022-12-05T19:31:13.852Z,99.90
2022-12-05T19:33:46.774Z,99.90
2022-12-05T19:36:15.646Z,99.90
2022-12-05T19:38:45.035Z,99.90
2022-12-05T19:41:16.766Z,99.90
2022-12-05T19:43:45.398Z,99.90
2022-12-05T19:46:19.367Z,99.90
2022-12-05T19:48:47.056Z,99.90
2022-12-05T19:51:14.963Z,99.90
2022-12-05T19:53:44.373Z,99.90
2022-12-05T19:56:21.223Z,99.90
2022-12-05T19:58:53.068Z,99.90
2022-12-05T20:01:29.435Z,99.90
2022-12-05T20:04:11.528Z,99.90
2022-12-05T20:06:50.138Z,99.90
2022-12-05T20:09:20.459Z,99.90
2022-12-05T20:11:55.238Z,99.90
2022-12-05T20:14:24.730Z,99.90
2022-12-05T20:16:52.996Z,99.90
2022-12-05T20:19:20.474Z,99.90
2022-12-05T20:21:48.087Z,99.90
2022-12-05T20:24:15.629Z,99.90
2022-12-05T20:26:44.776Z,99.90
2022-12-05T20:29:12.435Z,99.90
2022-12-05T20:31:43.444Z,99.90
2022-12-05T20:34:14.039Z,99.90
2022-12-05T20:36:42.245Z,99.90
2022-12-05T20:39:18.623Z,99.90
2022-12-05T20:41:46.724Z,99.90
2022-12-05T20:44:15.666Z,99.90
2022-12-05T20:46:43.246Z,99.90
2022-12-05T20:49:12.934Z,99.90
2022-12-05T20:51:46.324Z,99.90
2022-12-05T20:54:16.762Z,99.90
2022-12-05T20:56:45.465Z,99.90
2022-12-05T20:59:13.483Z,99.90
2022-12-05T21:01:41.127Z,99.90
2022-12-05T21:04:09.142Z,99.90
2022-12-05T21:06:38.411Z,99.90
2022-12-05T21:09:15.230Z,99.90
2022-12-05T21:11:43.274Z,99.90
2022-12-05T21:14:11.243Z,99.90
2022-12-05T21:16:38.498Z,99.90
2022-12-05T21:19:05.706Z,99.10
2022-12-05T21:21:34.370Z,98.70
2022-12-05T21:24:03.684Z,98.20
2022-12-05T21:26:33.002Z,95.60
2022-12-05T21:29:01.597Z,94.20
2022-12-05T21:31:32.413Z,91.90
2022-12-05T21:34:02.927Z,81.40
2022-12-05T21:36:32.552Z,70.60
2022-12-05T21:39:00.383Z,71.00
2022-12-05T21:41:27.699Z,66.40
2022-12-05T21:43:55.910Z,65.30
2022-12-05T21:46:26.594Z,67.80
2022-12-05T21:48:54.664Z,71.30
2022-12-05T21:51:22.659Z,73.60
2022-12-05T21:53:50.817Z,73.90
2022-12-05T21:56:22.998Z,77.80
2022-12-05T21:58:50.943Z,67.60
2022-12-05T22:01:26.680Z,71.10
2022-12-05T22:03:57.384Z,73.10
2022-12-05T22:06:25.019Z,74.10
2022-12-05T22:08:53.788Z,76.00
2022-12-05T22:11:23.799Z,75.90
2022-12-05T22:13:51.963Z,73.00
2022-12-05T22:16:19.871Z,74.70
2022-12-05T22:18:47.829Z,73.90
2022-12-05T22:21:18.027Z,72.60
2022-12-05T22:23:45.699Z,71.90
2022-12-05T22:26:15.581Z,68.70
2022-12-05T22:28:43.494Z,69.60
2022-12-05T22:31:13.060Z,72.00
2022-12-05T22:33:41.051Z,67.80
2022-12-05T22:36:10.377Z,73.00
2022-12-05T22:38:40.157Z,73.70
2022-12-05T22:41:15.884Z,76.50
2022-12-05T22:43:45.501Z,79.40
2022-12-05T22:46:18.239Z,80.10
2022-12-05T22:48:46.995Z,74.60
2022-12-05T22:51:15.447Z,71.30
2022-12-05T22:53:42.751Z,73.70
2022-12-05T22:56:12.952Z,75.30
2022-12-05T22:58:40.795Z,80.60
2022-12-05T23:01:16.924Z,86.20
2022-12-05T23:03:45.691Z,82.00
2022-12-05T23:06:14.557Z,84.00
2022-12-05T23:08:44.689Z,84.40
2022-12-05T23:11:12.489Z,88.50
2022-12-05T23:13:40.207Z,87.60
2022-12-05T23:16:09.846Z,79.00
2022-12-05T23:18:56.500Z,73.60
2022-12-05T23:21:24.938Z,80.40
2022-12-05T23:23:54.329Z,97.20
2022-12-05T23:26:24.154Z,82.90
2022-12-05T23:28:52.188Z,88.80
2022-12-05T23:31:20.209Z,87.40
2022-12-05T23:33:51.048Z,88.30
2022-12-05T23:36:20.141Z,88.20
2022-12-05T23:38:47.797Z,82.10
2022-12-05T23:41:21.525Z,81.10
2022-12-05T23:43:50.536Z,83.90
2022-12-05T23:46:20.864Z,84.00
2022-12-05T23:48:48.876Z,83.00
2022-12-05T23:51:19.112Z,85.80
2022-12-05T23:53:47.922Z,88.70
2022-12-05T23:56:20.521Z,88.30
2022-12-05T23:58:47.834Z,89.90
